sensor_id;sensor_type;location;lat;lon;timestamp;pressure;altitude;pressure_sealevel;temperature;humidity
59367;BME280;45163;47.690;11.770;2023-07-24T00:00:19;92873.53;;;19.98;100.00
59367;BME280;45163;47.690;11.770;2023-07-24T00:02:45;92882.81;;;19.56;100.00
59367;BME280;45163;47.690;11.770;2023-07-24T00:05:11;92887.09;;;19.34;100.00
59367;BME280;45163;47.690;11.770;2023-07-24T00:07:37;92890.09;;;19.25;100.00
59367;BME280;45163;47.690;11.770;2023-07-24T00:10:04;92885.03;;;19.18;100.00
59367;BME280;45163;47.690;11.770;2023-07-24T00:12:30;92878.25;;;19.08;100.00
59367;BME280;45163;47.690;11.770;2023-07-24T00:14:56;92874.97;;;18.98;100.00
59367;BME280;45163;47.690;11.770;2023-07-24T00:17:22;92872.13;;;18.76;100.00
59367;BME280;45163;47.690;11.770;2023-07-24T00:19:48;92876.16;;;18.80;100.00
59367;BME280;45163;47.690;11.770;2023-07-24T00:22:14;92869.03;;;18.57;100.00
59367;BME280;45163;47.690;11.770;2023-07-24T00:24:40;92865.97;;;18.55;100.00
59367;BME280;45163;47.690;11.770;2023-07-24T00:27:06;92866.28;;;18.68;100.00
59367;BME280;45163;47.690;11.770;2023-07-24T00:29:32;92869.59;;;18.72;100.00
59367;BME280;45163;47.690;11.770;2023-07-24T00:31:58;92870.34;;;18.73;100.00
59367;BME280;45163;47.690;11.770;2023-07-24T00:34:24;92867.34;;;18.71;100.00
59367;BME280;45163;47.690;11.770;2023-07-24T00:36:50;92858.19;;;18.53;100.00
59367;BME280;45163;47.690;11.770;2023-07-24T00:39:16;92858.69;;;18.52;100.00
59367;BME280;45163;47.690;11.770;2023-07-24T00:41:43;92860.47;;;18.55;100.00
59367;BME280;45163;47.690;11.770;2023-07-24T00:44:09;92855.75;;;18.12;100.00
59367;BME280;45163;47.690;11.770;2023-07-24T00:46:35;92859.34;;;18.30;100.00
59367;BME280;45163;47.690;11.770;2023-07-24T00:49:02;92852.81;;;18.27;100.00
59367;BME280;45163;47.690;11.770;2023-07-24T00:51:30;92848.50;;;18.21;100.00
59367;BME280;45163;47.690;11.770;2023-07-24T00:54:03;92849.78;;;18.25;100.00
59367;BME280;45163;47.690;11.770;2023-07-24T00:56:31;92842.97;;;18.21;100.00
59367;BME280;45163;47.690;11.770;2023-07-24T00:58:59;92833.66;;;18.18;100.00
59367;BME280;45163;47.690;11.770;2023-07-24T01:01:26;92839.78;;;18.39;100.00
59367;BME280;45163;47.690;11.770;2023-07-24T01:03:52;92832.06;;;18.49;100.00
59367;BME280;45163;47.690;11.770;2023-07-24T01:06:18;92830.84;;;18.61;100.00
59367;BME280;45163;47.690;11.770;2023-07-24T01:08:44;92825.31;;;18.61;100.00
59367;BME280;45163;47.690;11.770;2023-07-24T01:11:30;92819.22;;;18.46;100.00
59367;BME280;45163;47.690;11.770;2023-07-24T01:16:58;92818.47;;;18.39;100.00
59367;BME280;45163;47.690;11.770;2023-07-24T01:19:49;92813.97;;;18.53;100.00
59367;BME280;45163;47.690;11.770;2023-07-24T01:27:27;92803.28;;;19.06;100.00
59367;BME280;45163;47.690;11.770;2023-07-24T01:29:53;92796.00;;;19.14;100.00
59367;BME280;45163;47.690;11.770;2023-07-24T01:32:19;92800.78;;;19.08;100.00
59367;BME280;45163;47.690;11.770;2023-07-24T01:34:46;92797.25;;;19.58;100.00
59367;BME280;45163;47.690;11.770;2023-07-24T01:37:12;92792.22;;;19.51;100.00
59367;BME280;45163;47.690;11.770;2023-07-24T01:39:43;92780.66;;;19.52;100.00
59367;BME280;45163;47.690;11.770;2023-07-24T01:42:10;92778.88;;;19.60;100.00
59367;BME280;45163;47.690;11.770;2023-07-24T01:44:36;92788.22;;;19.40;100.00
59367;BME280;45163;47.690;11.770;2023-07-24T01:47:03;92771.34;;;19.72;100.00
59367;BME280;45163;47.690;11.770;2023-07-24T01:49:29;92770.53;;;20.00;100.00
59367;BME280;45163;47.690;11.770;2023-07-24T01:51:54;92774.56;;;19.93;100.00
59367;BME280;45163;47.690;11.770;2023-07-24T01:54:20;92758.25;;;19.78;100.00
59367;BME280;45163;47.690;11.770;2023-07-24T01:56:46;92764.78;;;19.86;100.00
59367;BME280;45163;47.690;11.770;2023-07-24T01:59:12;92764.78;;;19.86;100.00
59367;BME280;45163;47.690;11.770;2023-07-24T02:01:38;92756.50;;;19.70;100.00
59367;BME280;45163;47.690;11.770;2023-07-24T02:04:04;92767.31;;;19.68;100.00
59367;BME280;45163;47.690;11.770;2023-07-24T02:06:30;92769.84;;;18.87;100.00
59367;BME280;45163;47.690;11.770;2023-07-24T02:08:56;92768.34;;;19.25;100.00
59367;BME280;45163;47.690;11.770;2023-07-24T02:11:22;92765.59;;;19.36;100.00
59367;BME280;45163;47.690;11.770;2023-07-24T02:13:48;92776.91;;;19.44;100.00
59367;BME280;45163;47.690;11.770;2023-07-24T02:16:14;92773.13;;;19.41;100.00
59367;BME280;45163;47.690;11.770;2023-07-24T02:18:42;92772.84;;;19.51;100.00
59367;BME280;45163;47.690;11.770;2023-07-24T02:21:08;92770.34;;;19.53;100.00
59367;BME280;45163;47.690;11.770;2023-07-24T02:23:35;92774.34;;;19.52;100.00
59367;BME280;45163;47.690;11.770;2023-07-24T02:26:01;92770.09;;;19.45;100.00
59367;BME280;45163;47.690;11.770;2023-07-24T02:28:27;92778.41;;;19.00;100.00
59367;BME280;45163;47.690;11.770;2023-07-24T02:30:53;92782.69;;;18.90;100.00
59367;BME280;45163;47.690;11.770;2023-07-24T02:33:23;92783.19;;;19.00;100.00
59367;BME280;45163;47.690;11.770;2023-07-24T02:35:51;92786.94;;;18.97;100.00
59367;BME280;45163;47.690;11.770;2023-07-24T02:38:17;92793.22;;;18.97;100.00
59367;BME280;45163;47.690;11.770;2023-07-24T02:40:44;92784.19;;;18.91;100.00
59367;BME280;45163;47.690;11.770;2023-07-24T02:43:10;92786.69;;;18.95;100.00
59367;BME280;45163;47.690;11.770;2023-07-24T02:45:37;92796.22;;;18.82;100.00
59367;BME280;45163;47.690;11.770;2023-07-24T02:48:04;92795.22;;;18.74;100.00
59367;BME280;45163;47.690;11.770;2023-07-24T02:50:30;92791.19;;;18.75;100.00
59367;BME280;45163;47.690;11.770;2023-07-24T02:52:56;92793.72;;;18.84;100.00
59367;BME280;45163;47.690;11.770;2023-07-24T02:55:22;92790.97;;;18.96;100.00
59367;BME280;45163;47.690;11.770;2023-07-24T02:57:48;92789.97;;;18.99;100.00
59367;BME280;45163;47.690;11.770;2023-07-24T03:00:14;92804.81;;;18.90;100.00
59367;BME280;45163;47.690;11.770;2023-07-24T03:02:40;92800.78;;;18.91;100.00
59367;BME280;45163;47.690;11.770;2023-07-24T03:05:06;92789.72;;;18.91;100.00
59367;BME280;45163;47.690;11.770;2023-07-24T03:07:32;92783.41;;;18.85;100.00
59367;BME280;45163;47.690;11.770;2023-07-24T03:09:58;92783.41;;;18.74;100.00
59367;BME280;45163;47.690;11.770;2023-07-24T03:12:24;92783.91;;;18.83;100.00
59367;BME280;45163;47.690;11.770;2023-07-24T03:17:16;92779.63;;;18.77;100.00
59367;BME280;45163;47.690;11.770;2023-07-24T03:19:42;92775.06;;;18.68;100.00
59367;BME280;45163;47.690;11.770;2023-07-24T03:22:08;92770.06;;;18.72;100.00
59367;BME280;45163;47.690;11.770;2023-07-24T03:24:35;92764.81;;;18.80;100.00
59367;BME280;45163;47.690;11.770;2023-07-24T03:27:01;92756.78;;;18.87;100.00
59367;BME280;45163;47.690;11.770;2023-07-24T03:29:27;92764.06;;;18.96;100.00
59367;BME280;45163;47.690;11.770;2023-07-24T03:31:53;92790.19;;;18.84;100.00
59367;BME280;45163;47.690;11.770;2023-07-24T03:34:19;92872.59;;;18.69;100.00
59367;BME280;45163;47.690;11.770;2023-07-24T03:36:45;92876.44;;;18.88;100.00
59367;BME280;45163;47.690;11.770;2023-07-24T03:39:11;92897.63;;;19.13;100.00
59367;BME280;45163;47.690;11.770;2023-07-24T03:41:42;92910.50;;;19.39;100.00
59367;BME280;45163;47.690;11.770;2023-07-24T03:44:08;92920.88;;;19.67;100.00
59367;BME280;45163;47.690;11.770;2023-07-24T03:46:34;92908.78;;;19.98;100.00
59367;BME280;45163;47.690;11.770;2023-07-24T03:49:00;92891.84;;;20.29;100.00
59367;BME280;45163;47.690;11.770;2023-07-24T03:51:26;92905.97;;;20.26;100.00
59367;BME280;45163;47.690;11.770;2023-07-24T03:53:52;92911.00;;;20.44;100.00
59367;BME280;45163;47.690;11.770;2023-07-24T03:56:18;92903.16;;;20.54;100.00
59367;BME280;45163;47.690;11.770;2023-07-24T03:58:45;92894.06;;;20.48;100.00
59367;BME280;45163;47.690;11.770;2023-07-24T04:01:11;92884.53;;;20.49;100.00
59367;BME280;45163;47.690;11.770;2023-07-24T04:03:37;92879.97;;;20.46;100.00
59367;BME280;45163;47.690;11.770;2023-07-24T04:06:03;92878.50;;;20.28;100.00
59367;BME280;45163;47.690;11.770;2023-07-24T04:08:29;92877.28;;;20.01;100.00
59367;BME280;45163;47.690;11.770;2023-07-24T04:10:55;92884.38;;;19.90;100.00
59367;BME280;45163;47.690;11.770;2023-07-24T04:13:22;92879.09;;;19.76;100.00
59367;BME280;45163;47.690;11.770;2023-07-24T04:15:48;92852.88;;;19.60;100.00
59367;BME280;45163;47.690;11.770;2023-07-24T04:18:14;92843.59;;;19.63;100.00
59367;BME280;45163;47.690;11.770;2023-07-24T04:20:40;92840.06;;;19.57;100.00
59367;BME280;45163;47.690;11.770;2023-07-24T04:23:06;92829.72;;;19.69;100.00
59367;BME280;45163;47.690;11.770;2023-07-24T04:25:32;92833.78;;;19.68;100.00
59367;BME280;45163;47.690;11.770;2023-07-24T04:27:58;92831.25;;;19.75;100.00
59367;BME280;45163;47.690;11.770;2023-07-24T04:30:24;92838.81;;;19.63;100.00
59367;BME280;45163;47.690;11.770;2023-07-24T04:32:50;92834.50;;;19.51;100.00
59367;BME280;45163;47.690;11.770;2023-07-24T04:35:16;92835.03;;;19.44;100.00
59367;BME280;45163;47.690;11.770;2023-07-24T04:37:42;92837.28;;;19.40;100.00
59367;BME280;45163;47.690;11.770;2023-07-24T04:40:08;92833.00;;;19.45;100.00
59367;BME280;45163;47.690;11.770;2023-07-24T04:42:34;92828.47;;;19.53;100.00
59367;BME280;45163;47.690;11.770;2023-07-24T04:45:00;92816.91;;;19.49;100.00
59367;BME280;45163;47.690;11.770;2023-07-24T04:47:26;92815.88;;;19.52;100.00
59367;BME280;45163;47.690;11.770;2023-07-24T04:49:52;92805.59;;;19.41;100.00
59367;BME280;45163;47.690;11.770;2023-07-24T04:52:19;92811.59;;;19.39;100.00
59367;BME280;45163;47.690;11.770;2023-07-24T04:54:45;92813.88;;;19.24;100.00
59367;BME280;45163;47.690;11.770;2023-07-24T04:57:11;92797.53;;;19.32;100.00
59367;BME280;45163;47.690;11.770;2023-07-24T04:59:37;92797.28;;;19.35;100.00
59367;BME280;45163;47.690;11.770;2023-07-24T05:02:03;92797.78;;;19.34;100.00
59367;BME280;45163;47.690;11.770;2023-07-24T05:04:29;92799.53;;;19.26;100.00
59367;BME280;45163;47.690;11.770;2023-07-24T05:06:55;92804.31;;;19.03;100.00
59367;BME280;45163;47.690;11.770;2023-07-24T05:09:21;92804.06;;;19.12;100.00
59367;BME280;45163;47.690;11.770;2023-07-24T05:11:47;92791.75;;;19.35;100.00
59367;BME280;45163;47.690;11.770;2023-07-24T05:14:13;92782.44;;;19.44;100.00
59367;BME280;45163;47.690;11.770;2023-07-24T05:16:39;92773.09;;;19.58;100.00
59367;BME280;45163;47.690;11.770;2023-07-24T05:19:05;92776.13;;;19.72;100.00
59367;BME280;45163;47.690;11.770;2023-07-24T05:21:31;92763.22;;;19.97;100.00
59367;BME280;45163;47.690;11.770;2023-07-24T05:23:57;92763.56;;;20.34;100.00
59367;BME280;45163;47.690;11.770;2023-07-24T05:26:23;92758.72;;;20.57;100.00
59367;BME280;45163;47.690;11.770;2023-07-24T05:28:49;92755.81;;;20.80;100.00
59367;BME280;45163;47.690;11.770;2023-07-24T05:31:15;92750.88;;;21.03;100.00
59367;BME280;45163;47.690;11.770;2023-07-24T05:33:41;92751.00;;;21.16;100.00
59367;BME280;45163;47.690;11.770;2023-07-24T05:36:07;92746.53;;;21.07;100.00
59367;BME280;45163;47.690;11.770;2023-07-24T05:38:32;92742.44;;;21.14;100.00
59367;BME280;45163;47.690;11.770;2023-07-24T05:41:00;92747.00;;;21.11;100.00
59367;BME280;45163;47.690;11.770;2023-07-24T05:43:27;92739.00;;;21.02;100.00
59367;BME280;45163;47.690;11.770;2023-07-24T05:45:55;92746.66;;;20.91;100.00
59367;BME280;45163;47.690;11.770;2023-07-24T05:48:22;92736.66;;;21.12;100.00
59367;BME280;45163;47.690;11.770;2023-07-24T05:50:49;92730.94;;;21.34;100.00
59367;BME280;45163;47.690;11.770;2023-07-24T05:53:15;92725.09;;;21.38;100.00
59367;BME280;45163;47.690;11.770;2023-07-24T05:55:41;92731.66;;;21.41;100.00
59367;BME280;45163;47.690;11.770;2023-07-24T05:58:08;92732.59;;;21.49;100.00
59367;BME280;45163;47.690;11.770;2023-07-24T06:00:35;92717.31;;;21.31;100.00
59367;BME280;45163;47.690;11.770;2023-07-24T06:03:02;92719.50;;;21.44;100.00
59367;BME280;45163;47.690;11.770;2023-07-24T06:05:28;92711.19;;;21.68;100.00
59367;BME280;45163;47.690;11.770;2023-07-24T06:07:54;92716.94;;;22.19;100.00
59367;BME280;45163;47.690;11.770;2023-07-24T06:10:21;92714.34;;;22.46;100.00
59367;BME280;45163;47.690;11.770;2023-07-24T06:12:47;92716.81;;;22.49;100.00
59367;BME280;45163;47.690;11.770;2023-07-24T06:15:13;92718.81;;;23.05;100.00
59367;BME280;45163;47.690;11.770;2023-07-24T06:17:39;92720.47;;;23.27;98.53
59367;BME280;45163;47.690;11.770;2023-07-24T06:20:06;92716.88;;;23.91;97.98
59367;BME280;45163;47.690;11.770;2023-07-24T06:22:32;92736.91;;;24.03;93.21
59367;BME280;45163;47.690;11.770;2023-07-24T06:24:58;92720.59;;;24.20;91.50
59367;BME280;45163;47.690;11.770;2023-07-24T06:27:24;92709.34;;;24.26;92.77
59367;BME280;45163;47.690;11.770;2023-07-24T06:29:50;92705.69;;;24.44;90.21
59367;BME280;45163;47.690;11.770;2023-07-24T06:32:16;92711.59;;;24.88;91.72
59367;BME280;45163;47.690;11.770;2023-07-24T06:34:42;92712.75;;;25.27;87.49
59367;BME280;45163;47.690;11.770;2023-07-24T06:37:08;92725.13;;;25.60;84.93
59367;BME280;45163;47.690;11.770;2023-07-24T06:39:34;92711.44;;;25.49;82.74
59367;BME280;45163;47.690;11.770;2023-07-24T06:42:00;92726.56;;;25.53;84.48
59367;BME280;45163;47.690;11.770;2023-07-24T06:44:26;92722.88;;;26.37;87.42
59367;BME280;45163;47.690;11.770;2023-07-24T06:46:52;92713.56;;;26.42;81.27
59367;BME280;45163;47.690;11.770;2023-07-24T06:49:18;92712.91;;;26.56;82.70
59367;BME280;45163;47.690;11.770;2023-07-24T06:51:44;92717.78;;;26.27;84.06
59367;BME280;45163;47.690;11.770;2023-07-24T06:54:10;92690.09;;;26.08;85.34
59367;BME280;45163;47.690;11.770;2023-07-24T06:56:36;92687.09;;;25.57;86.61
59367;BME280;45163;47.690;11.770;2023-07-24T06:59:02;92692.09;;;26.37;88.19
59367;BME280;45163;47.690;11.770;2023-07-24T07:01:28;92684.34;;;26.50;88.30
59367;BME280;45163;47.690;11.770;2023-07-24T07:03:54;92671.00;;;26.36;88.32
59367;BME280;45163;47.690;11.770;2023-07-24T07:06:20;92667.81;;;25.95;91.10
59367;BME280;45163;47.690;11.770;2023-07-24T07:08:46;92668.75;;;25.69;89.90
59367;BME280;45163;47.690;11.770;2023-07-24T07:11:12;92659.78;;;25.71;92.05
59367;BME280;45163;47.690;11.770;2023-07-24T07:13:38;92658.25;;;25.62;92.17
59367;BME280;45163;47.690;11.770;2023-07-24T07:16:04;92657.16;;;25.65;93.93
59367;BME280;45163;47.690;11.770;2023-07-24T07:18:30;92655.66;;;25.64;91.14
59367;BME280;45163;47.690;11.770;2023-07-24T07:20:56;92653.09;;;24.82;95.89
59367;BME280;45163;47.690;11.770;2023-07-24T07:23:28;92653.50;;;25.07;94.90
59367;BME280;45163;47.690;11.770;2023-07-24T07:25:54;92650.78;;;24.94;94.42
59367;BME280;45163;47.690;11.770;2023-07-24T07:28:20;92660.66;;;24.95;97.21
59367;BME280;45163;47.690;11.770;2023-07-24T07:30:47;92650.94;;;24.54;98.65
59367;BME280;45163;47.690;11.770;2023-07-24T07:33:12;92659.50;;;24.56;100.00
59367;BME280;45163;47.690;11.770;2023-07-24T07:35:38;92661.03;;;24.78;100.00
59367;BME280;45163;47.690;11.770;2023-07-24T07:38:04;92658.63;;;24.75;100.00
59367;BME280;45163;47.690;11.770;2023-07-24T07:40:30;92662.69;;;24.74;100.00
59367;BME280;45163;47.690;11.770;2023-07-24T07:42:57;92666.44;;;24.16;100.00
59367;BME280;45163;47.690;11.770;2023-07-24T07:45:23;92661.84;;;24.18;100.00
59367;BME280;45163;47.690;11.770;2023-07-24T07:47:50;92704.72;;;24.28;100.00
59367;BME280;45163;47.690;11.770;2023-07-24T07:50:16;92770.59;;;23.92;100.00
59367;BME280;45163;47.690;11.770;2023-07-24T07:52:42;92764.59;;;24.01;100.00
59367;BME280;45163;47.690;11.770;2023-07-24T07:55:08;92782.06;;;24.15;91.16
59367;BME280;45163;47.690;11.770;2023-07-24T07:57:35;92773.81;;;24.22;88.27
59367;BME280;45163;47.690;11.770;2023-07-24T08:00:05;92798.69;;;24.07;92.82
59367;BME280;45163;47.690;11.770;2023-07-24T08:02:34;92810.44;;;23.86;93.87
59367;BME280;45163;47.690;11.770;2023-07-24T08:05:00;92810.09;;;23.77;95.02
59367;BME280;45163;47.690;11.770;2023-07-24T08:07:26;92813.44;;;23.56;94.91
59367;BME280;45163;47.690;11.770;2023-07-24T08:09:52;92831.34;;;23.61;94.33
59367;BME280;45163;47.690;11.770;2023-07-24T08:12:18;92829.41;;;23.75;95.89
59367;BME280;45163;47.690;11.770;2023-07-24T08:14:44;92823.22;;;23.95;96.54
59367;BME280;45163;47.690;11.770;2023-07-24T08:17:10;92834.47;;;23.90;95.00
59367;BME280;45163;47.690;11.770;2023-07-24T08:19:36;92831.97;;;24.31;93.31
59367;BME280;45163;47.690;11.770;2023-07-24T08:22:02;92841.00;;;24.64;92.19
59367;BME280;45163;47.690;11.770;2023-07-24T08:24:28;92847.06;;;25.02;88.23
59367;BME280;45163;47.690;11.770;2023-07-24T08:26:54;92835.78;;;25.76;84.73
59367;BME280;45163;47.690;11.770;2023-07-24T08:29:20;92832.63;;;26.43;82.52
59367;BME280;45163;47.690;11.770;2023-07-24T08:31:46;92839.47;;;26.63;77.37
59367;BME280;45163;47.690;11.770;2023-07-24T08:34:12;92832.50;;;27.21;76.92
59367;BME280;45163;47.690;11.770;2023-07-24T08:36:38;92825.44;;;27.27;73.90
59367;BME280;45163;47.690;11.770;2023-07-24T08:39:04;92836.09;;;27.37;76.61
59367;BME280;45163;47.690;11.770;2023-07-24T08:41:30;92819.50;;;27.39;75.25
59367;BME280;45163;47.690;11.770;2023-07-24T08:43:58;92794.59;;;26.83;73.18
59367;BME280;45163;47.690;11.770;2023-07-24T08:46:24;92794.28;;;26.58;77.10
59367;BME280;45163;47.690;11.770;2023-07-24T08:48:52;92799.50;;;26.98;77.29
59367;BME280;45163;47.690;11.770;2023-07-24T08:51:18;92811.84;;;27.03;76.98
59367;BME280;45163;47.690;11.770;2023-07-24T08:53:50;92810.66;;;26.47;78.03
59367;BME280;45163;47.690;11.770;2023-07-24T08:56:16;92809.19;;;26.53;78.78
59367;BME280;45163;47.690;11.770;2023-07-24T08:58:42;92806.00;;;26.49;82.96
59367;BME280;45163;47.690;11.770;2023-07-24T09:01:08;92790.38;;;27.65;76.26
59367;BME280;45163;47.690;11.770;2023-07-24T09:03:35;92800.50;;;28.29;72.86
59367;BME280;45163;47.690;11.770;2023-07-24T09:06:02;92793.78;;;28.17;68.87
59367;BME280;45163;47.690;11.770;2023-07-24T09:09:11;92799.78;;;26.79;73.09
59367;BME280;45163;47.690;11.770;2023-07-24T09:11:21;92798.16;;;26.84;75.46
59367;BME280;45163;47.690;11.770;2023-07-24T09:13:49;92789.06;;;26.55;78.71
59367;BME280;45163;47.690;11.770;2023-07-24T09:16:23;92776.16;;;26.88;79.15
59367;BME280;45163;47.690;11.770;2023-07-24T09:18:50;92777.47;;;26.95;75.90
59367;BME280;45163;47.690;11.770;2023-07-24T09:21:31;92772.75;;;27.41;77.52
59367;BME280;45163;47.690;11.770;2023-07-24T09:24:11;92778.41;;;27.64;72.83
59367;BME280;45163;47.690;11.770;2023-07-24T09:26:51;92776.13;;;27.32;70.86
59367;BME280;45163;47.690;11.770;2023-07-24T09:29:18;92770.75;;;27.57;69.53
59367;BME280;45163;47.690;11.770;2023-07-24T09:31:45;92766.94;;;27.24;68.11
59367;BME280;45163;47.690;11.770;2023-07-24T09:34:16;92754.53;;;27.04;71.47
59367;BME280;45163;47.690;11.770;2023-07-24T09:36:42;92747.94;;;26.50;81.38
59367;BME280;45163;47.690;11.770;2023-07-24T09:39:08;92741.34;;;26.40;84.47
59367;BME280;45163;47.690;11.770;2023-07-24T09:41:36;92728.00;;;26.17;86.54
59367;BME280;45163;47.690;11.770;2023-07-24T09:44:02;92725.38;;;26.48;87.26
59367;BME280;45163;47.690;11.770;2023-07-24T09:46:28;92710.13;;;26.56;85.64
59367;BME280;45163;47.690;11.770;2023-07-24T09:48:56;92699.28;;;27.12;84.39
59367;BME280;45163;47.690;11.770;2023-07-24T09:51:23;92701.00;;;27.53;81.53
59367;BME280;45163;47.690;11.770;2023-07-24T09:56:18;92686.81;;;27.97;78.89
59367;BME280;45163;47.690;11.770;2023-07-24T09:58:45;92677.72;;;28.45;77.64
59367;BME280;45163;47.690;11.770;2023-07-24T10:01:15;92677.31;;;28.56;72.40
59367;BME280;45163;47.690;11.770;2023-07-24T10:03:47;92659.38;;;28.84;73.72
59367;BME280;45163;47.690;11.770;2023-07-24T10:06:14;92654.19;;;28.81;71.88
59367;BME280;45163;47.690;11.770;2023-07-24T10:08:41;92644.50;;;28.66;68.93
59367;BME280;45163;47.690;11.770;2023-07-24T10:11:13;92639.88;;;28.94;72.47
59367;BME280;45163;47.690;11.770;2023-07-24T10:13:40;92628.88;;;29.38;64.15
59367;BME280;45163;47.690;11.770;2023-07-24T10:16:07;92625.94;;;29.61;68.97
59367;BME280;45163;47.690;11.770;2023-07-24T10:18:35;92625.22;;;29.53;66.17
59367;BME280;45163;47.690;11.770;2023-07-24T10:21:06;92624.66;;;30.49;63.49
59367;BME280;45163;47.690;11.770;2023-07-24T10:23:37;92621.34;;;30.08;58.13
59367;BME280;45163;47.690;11.770;2023-07-24T10:26:06;92620.97;;;29.69;63.50
59367;BME280;45163;47.690;11.770;2023-07-24T10:28:34;92618.84;;;29.77;63.24
59367;BME280;45163;47.690;11.770;2023-07-24T10:31:05;92602.53;;;29.76;62.38
59367;BME280;45163;47.690;11.770;2023-07-24T10:33:35;92593.44;;;29.18;60.25
59367;BME280;45163;47.690;11.770;2023-07-24T10:36:08;92589.19;;;29.09;64.82
59367;BME280;45163;47.690;11.770;2023-07-24T10:38:42;92568.47;;;29.89;62.37
59367;BME280;45163;47.690;11.770;2023-07-24T10:41:10;92558.63;;;30.42;60.52
59367;BME280;45163;47.690;11.770;2023-07-24T10:43:47;92573.16;;;30.21;57.97
59367;BME280;45163;47.690;11.770;2023-07-24T10:46:15;92567.97;;;30.18;58.48
59367;BME280;45163;47.690;11.770;2023-07-24T10:48:49;92555.88;;;30.25;54.88
59367;BME280;45163;47.690;11.770;2023-07-24T10:51:16;92564.09;;;30.85;52.72
59367;BME280;45163;47.690;11.770;2023-07-24T10:53:45;92555.78;;;30.77;52.23
59367;BME280;45163;47.690;11.770;2023-07-24T10:56:11;92551.53;;;30.95;48.21
59367;BME280;45163;47.690;11.770;2023-07-24T10:58:38;92552.94;;;31.60;50.76
59367;BME280;45163;47.690;11.770;2023-07-24T11:01:05;92557.28;;;31.61;47.94
59367;BME280;45163;47.690;11.770;2023-07-24T11:03:31;92548.44;;;31.38;48.51
59367;BME280;45163;47.690;11.770;2023-07-24T11:05:58;92545.81;;;30.76;51.82
59367;BME280;45163;47.690;11.770;2023-07-24T11:08:25;92539.75;;;30.80;53.95
59367;BME280;45163;47.690;11.770;2023-07-24T11:10:56;92547.47;;;30.79;54.28
59367;BME280;45163;47.690;11.770;2023-07-24T11:13:27;92540.28;;;31.42;52.52
59367;BME280;45163;47.690;11.770;2023-07-24T11:15:54;92542.25;;;31.59;50.95
59367;BME280;45163;47.690;11.770;2023-07-24T11:18:21;92543.53;;;31.94;51.09
59367;BME280;45163;47.690;11.770;2023-07-24T11:20:49;92549.84;;;31.75;49.68
59367;BME280;45163;47.690;11.770;2023-07-24T11:23:16;92540.78;;;31.48;50.75
59367;BME280;45163;47.690;11.770;2023-07-24T11:25:43;92522.34;;;32.63;48.78
59367;BME280;45163;47.690;11.770;2023-07-24T11:28:11;92520.34;;;33.26;44.50
59367;BME280;45163;47.690;11.770;2023-07-24T11:30:40;92515.78;;;32.70;41.75
59367;BME280;45163;47.690;11.770;2023-07-24T11:33:09;92508.72;;;32.91;43.05
59367;BME280;45163;47.690;11.770;2023-07-24T11:35:36;92503.84;;;33.22;49.54
59367;BME280;45163;47.690;11.770;2023-07-24T11:38:04;92517.78;;;32.89;49.13
59367;BME280;45163;47.690;11.770;2023-07-24T11:40:38;92520.28;;;32.54;49.25
59367;BME280;45163;47.690;11.770;2023-07-24T11:43:05;92504.84;;;32.36;50.42
59367;BME280;45163;47.690;11.770;2023-07-24T11:45:31;92499.25;;;31.87;49.18
59367;BME280;45163;47.690;11.770;2023-07-24T11:48:09;92494.16;;;32.05;53.80
59367;BME280;45163;47.690;11.770;2023-07-24T11:50:47;92492.25;;;31.88;51.12
59367;BME280;45163;47.690;11.770;2023-07-24T11:53:24;92483.75;;;31.79;48.95
59367;BME280;45163;47.690;11.770;2023-07-24T11:55:52;92492.59;;;30.26;56.60
59367;BME280;45163;47.690;11.770;2023-07-24T11:58:19;92492.44;;;30.24;57.12
59367;BME280;45163;47.690;11.770;2023-07-24T12:00:46;92484.84;;;30.44;55.77
59367;BME280;45163;47.690;11.770;2023-07-24T12:03:14;92475.19;;;30.37;58.05
59367;BME280;45163;47.690;11.770;2023-07-24T12:05:41;92465.22;;;30.63;56.94
59367;BME280;45163;47.690;11.770;2023-07-24T12:08:08;92476.09;;;30.40;59.92
59367;BME280;45163;47.690;11.770;2023-07-24T12:10:36;92462.09;;;30.59;56.97
59367;BME280;45163;47.690;11.770;2023-07-24T12:13:03;92454.13;;;30.65;56.89
59367;BME280;45163;47.690;11.770;2023-07-24T12:15:29;92458.16;;;30.18;59.10
59367;BME280;45163;47.690;11.770;2023-07-24T12:17:56;92452.34;;;30.33;57.95
59367;BME280;45163;47.690;11.770;2023-07-24T12:20:23;92440.28;;;30.87;54.19
59367;BME280;45163;47.690;11.770;2023-07-24T12:22:49;92437.22;;;31.21;54.84
59367;BME280;45163;47.690;11.770;2023-07-24T12:25:15;92444.19;;;31.20;53.51
59367;BME280;45163;47.690;11.770;2023-07-24T12:27:42;92429.50;;;31.12;52.00
59367;BME280;45163;47.690;11.770;2023-07-24T12:30:08;92424.47;;;31.11;54.55
59367;BME280;45163;47.690;11.770;2023-07-24T12:32:35;92426.56;;;31.30;56.51
59367;BME280;45163;47.690;11.770;2023-07-24T12:35:01;92419.91;;;31.54;52.08
59367;BME280;45163;47.690;11.770;2023-07-24T12:37:27;92423.25;;;32.40;51.60
59367;BME280;45163;47.690;11.770;2023-07-24T12:39:54;92420.66;;;32.54;50.72
59367;BME280;45163;47.690;11.770;2023-07-24T12:42:20;92421.16;;;32.40;56.54
59367;BME280;45163;47.690;11.770;2023-07-24T12:44:46;92409.50;;;31.95;52.93
59367;BME280;45163;47.690;11.770;2023-07-24T12:47:11;92378.59;;;31.68;51.44
59367;BME280;45163;47.690;11.770;2023-07-24T12:49:38;92364.00;;;32.83;52.36
59367;BME280;45163;47.690;11.770;2023-07-24T12:52:04;92388.41;;;33.85;44.80
59367;BME280;45163;47.690;11.770;2023-07-24T12:54:31;92395.50;;;33.20;49.21
59367;BME280;45163;47.690;11.770;2023-07-24T12:56:57;92394.53;;;32.34;48.52